Time;durP1;ratioP1;P1;durP2;ratioP2;P2;SDS_P1;SDS_P2;PMS_P1;PMS_P2;Temp;Humidity;BMP_temperature;BMP_pressure;BME280_temperature;BME280_humidity;BME280_pressure;Samples;Min_cycle;Max_cycle;Signal;HPM_P1;HPM_P2
2023/06/30 00:01:30;;;;;;;10.98;5.80;;;;;;;;;;7341951;19;20014;-64
2023/06/30 00:03:56;;;;;;;11.07;5.97;;;;;;;;;;7357248;19;20010;-66
2023/06/30 00:06:22;;;;;;;10.98;5.40;;;;;;;;;;7376626;19;20431;-65
2023/06/30 00:08:48;;;;;;;12.20;5.72;;;;;;;;;;7341232;19;20074;-64
2023/06/30 00:11:14;;;;;;;11.98;5.82;;;;;;;;;;7340050;19;20859;-63
2023/06/30 00:13:39;;;;;;;14.48;5.65;;;;;;;;;;7343511;19;20071;-66
2023/06/30 00:16:04;;;;;;;10.90;5.90;;;;;;;;;;7344466;19;20476;-65
2023/06/30 00:18:30;;;;;;;11.40;6.32;;;;;;;;;;7363507;19;20465;-65
2023/06/30 00:20:55;;;;;;;14.80;6.20;;;;;;;;;;7364351;19;20077;-66
2023/06/30 00:23:21;;;;;;;11.32;6.20;;;;;;;;;;7341714;19;20603;-66
2023/06/30 00:25:46;;;;;;;11.70;5.75;;;;;;;;;;7341091;19;20488;-66
2023/06/30 00:28:12;;;;;;;12.27;5.55;;;;;;;;;;7341214;19;20017;-64
2023/06/30 00:30:38;;;;;;;9.55;5.63;;;;;;;;;;7364074;19;20044;-65
2023/06/30 00:33:03;;;;;;;10.05;5.45;;;;;;;;;;7361423;19;20491;-66
2023/06/30 00:35:29;;;;;;;9.27;5.47;;;;;;;;;;7341438;19;20014;-66
2023/06/30 00:37:54;;;;;;;9.25;5.35;;;;;;;;;;7340054;19;20015;-66
2023/06/30 00:40:20;;;;;;;10.48;4.88;;;;;;;;;;7339731;19;20014;-65
2023/06/30 00:42:45;;;;;;;10.57;5.47;;;;;;;;;;7365437;19;20020;-66
2023/06/30 00:45:11;;;;;;;8.63;4.70;;;;;;;;;;7364170;19;20010;-65
2023/06/30 00:47:36;;;;;;;12.52;4.95;;;;;;;;;;7339749;19;20040;-67
2023/06/30 00:50:02;;;;;;;11.57;5.50;;;;;;;;;;7342497;19;20477;-66
2023/06/30 00:52:28;;;;;;;10.73;5.45;;;;;;;;;;7347406;19;20042;-66
2023/06/30 00:54:53;;;;;;;11.10;4.85;;;;;;;;;;7368165;19;20260;-64
2023/06/30 00:57:19;;;;;;;12.55;5.15;;;;;;;;;;7371151;19;20014;-65
2023/06/30 00:59:44;;;;;;;9.40;5.00;;;;;;;;;;7348867;19;20014;-65
2023/06/30 01:02:24;;;;;;;10.05;4.78;;;;;;;;;;7349621;19;20041;-65
2023/06/30 01:04:57;;;;;;;12.27;4.88;;;;;;;;;;7349123;19;20572;-64
2023/06/30 01:07:34;;;;;;;15.48;4.97;;;;;;;;;;7344607;19;20010;-64
2023/06/30 01:10:15;;;;;;;10.23;5.38;;;;;;;;;;7347380;19;20073;-64
2023/06/30 01:12:42;;;;;;;9.25;5.15;;;;;;;;;;7369754;19;20371;-63
2023/06/30 01:15:08;;;;;;;11.18;5.30;;;;;;;;;;7368340;19;20007;-65
2023/06/30 01:17:40;;;;;;;11.23;5.07;;;;;;;;;;7345682;19;20021;-66
2023/06/30 01:20:06;;;;;;;9.10;5.15;;;;;;;;;;7347740;19;20038;-64
2023/06/30 01:22:39;;;;;;;8.80;5.25;;;;;;;;;;7346611;19;20054;-65
2023/06/30 01:25:08;;;;;;;12.27;5.35;;;;;;;;;;7347792;19;20132;-65
2023/06/30 01:27:36;;;;;;;11.43;5.47;;;;;;;;;;7368225;19;20091;-65
2023/06/30 01:30:02;;;;;;;10.77;5.45;;;;;;;;;;7369740;19;20407;-65
2023/06/30 01:32:29;;;;;;;10.45;5.65;;;;;;;;;;7347792;19;20018;-66
2023/06/30 01:34:55;;;;;;;10.65;5.38;;;;;;;;;;7349060;19;20287;-65
2023/06/30 01:37:20;;;;;;;14.30;5.50;;;;;;;;;;7346811;19;20015;-65
2023/06/30 01:39:45;;;;;;;19.08;6.72;;;;;;;;;;7370618;19;20037;-64
2023/06/30 01:42:12;;;;;;;13.13;6.47;;;;;;;;;;7370416;19;20033;-64
2023/06/30 01:44:38;;;;;;;17.00;7.30;;;;;;;;;;7348425;19;20011;-65
2023/06/30 01:47:04;;;;;;;11.95;7.00;;;;;;;;;;7347236;19;20011;-64
2023/06/30 01:49:32;;;;;;;13.60;6.97;;;;;;;;;;7349487;19;20031;-65
2023/06/30 01:51:57;;;;;;;15.38;7.75;;;;;;;;;;7349117;19;20084;-64
2023/06/30 01:54:23;;;;;;;16.17;7.60;;;;;;;;;;7391817;19;20398;-64
2023/06/30 01:56:49;;;;;;;15.95;7.82;;;;;;;;;;7346511;19;20014;-65
2023/06/30 01:59:14;;;;;;;13.38;7.15;;;;;;;;;;7347960;19;20006;-64
2023/06/30 02:01:40;;;;;;;15.98;7.90;;;;;;;;;;7347125;19;20362;-65
2023/06/30 02:04:05;;;;;;;14.93;8.85;;;;;;;;;;7344944;19;20016;-66
2023/06/30 02:06:30;;;;;;;13.75;8.40;;;;;;;;;;7369132;19;20031;-64
2023/06/30 02:08:56;;;;;;;15.52;8.00;;;;;;;;;;7366264;19;20021;-64
2023/06/30 02:11:21;;;;;;;14.82;8.73;;;;;;;;;;7346179;19;20046;-64
2023/06/30 02:13:46;;;;;;;18.45;8.50;;;;;;;;;;7345363;19;20014;-66
2023/06/30 02:16:12;;;;;;;15.52;8.93;;;;;;;;;;7346341;19;20021;-65
2023/06/30 02:18:39;;;;;;;15.82;9.32;;;;;;;;;;7364939;19;20011;-65
2023/06/30 02:21:04;;;;;;;20.67;9.35;;;;;;;;;;7366470;19;20025;-65
2023/06/30 02:23:30;;;;;;;15.63;9.73;;;;;;;;;;7346251;19;20377;-65
2023/06/30 02:25:55;;;;;;;16.42;9.93;;;;;;;;;;7346130;19;20074;-64
2023/06/30 02:28:21;;;;;;;18.83;9.18;;;;;;;;;;7342648;19;20014;-64
2023/06/30 02:30:46;;;;;;;21.88;9.75;;;;;;;;;;7366065;19;20066;-64
2023/06/30 02:33:11;;;;;;;14.43;8.82;;;;;;;;;;7359675;19;20010;-65
2023/06/30 02:35:37;;;;;;;16.65;9.75;;;;;;;;;;7345425;19;20444;-63
2023/06/30 02:38:03;;;;;;;17.52;10.40;;;;;;;;;;7345703;19;20039;-64
2023/06/30 02:40:29;;;;;;;20.65;10.60;;;;;;;;;;7345693;19;20078;-65
2023/06/30 02:42:55;;;;;;;16.67;10.10;;;;;;;;;;7367407;19;20513;-66
2023/06/30 02:45:20;;;;;;;15.43;9.55;;;;;;;;;;7368498;19;20011;-66
2023/06/30 02:47:46;;;;;;;18.20;10.80;;;;;;;;;;7340474;19;20027;-65
2023/06/30 02:50:11;;;;;;;16.75;9.88;;;;;;;;;;7345390;19;20014;-66
2023/06/30 02:52:36;;;;;;;20.60;10.75;;;;;;;;;;7346093;19;20651;-65
2023/06/30 02:55:02;;;;;;;19.40;10.27;;;;;;;;;;7343437;19;20014;-66
2023/06/30 02:57:27;;;;;;;18.25;10.38;;;;;;;;;;7372820;19;20034;-64
2023/06/30 02:59:52;;;;;;;18.20;10.57;;;;;;;;;;7361507;19;20377;-65
2023/06/30 03:02:18;;;;;;;15.70;9.60;;;;;;;;;;7344267;19;20677;-64
2023/06/30 03:04:44;;;;;;;15.68;8.80;;;;;;;;;;7343815;19;20039;-65
2023/06/30 03:07:09;;;;;;;20.65;9.93;;;;;;;;;;7343479;19;20007;-64
2023/06/30 03:09:34;;;;;;;25.92;12.30;;;;;;;;;;7366306;19;20007;-64
2023/06/30 03:12:00;;;;;;;21.20;12.00;;;;;;;;;;7367119;19;20334;-65
2023/06/30 03:14:25;;;;;;;22.85;12.60;;;;;;;;;;7342467;19;20023;-64
2023/06/30 03:16:50;;;;;;;26.48;13.98;;;;;;;;;;7341780;19;20018;-65
2023/06/30 03:19:16;;;;;;;25.55;13.93;;;;;;;;;;7343836;19;20012;-65
2023/06/30 03:21:41;;;;;;;30.75;14.52;;;;;;;;;;7366087;19;20010;-65
2023/06/30 03:24:06;;;;;;;30.02;15.55;;;;;;;;;;7366045;19;20468;-65
2023/06/30 03:26:32;;;;;;;29.90;15.65;;;;;;;;;;7345501;19;20108;-65
2023/06/30 03:28:57;;;;;;;33.05;16.30;;;;;;;;;;7344317;19;20007;-65
2023/06/30 03:31:23;;;;;;;33.17;16.40;;;;;;;;;;7343746;19;20018;-65
2023/06/30 03:33:48;;;;;;;27.45;16.58;;;;;;;;;;7364836;19;20015;-65
2023/06/30 03:36:14;;;;;;;36.78;18.25;;;;;;;;;;7366680;19;20021;-65
2023/06/30 03:38:39;;;;;;;29.77;17.88;;;;;;;;;;7341985;19;20014;-64
2023/06/30 03:41:04;;;;;;;31.33;16.70;;;;;;;;;;7344274;19;20021;-63
2023/06/30 03:43:31;;;;;;;29.15;16.88;;;;;;;;;;7345246;19;20042;-65
2023/06/30 03:45:56;;;;;;;33.83;17.23;;;;;;;;;;7354273;19;20382;-65
2023/06/30 03:48:23;;;;;;;32.78;17.70;;;;;;;;;;7381580;19;20078;-65
2023/06/30 03:50:52;;;;;;;31.17;17.02;;;;;;;;;;7345127;19;20042;-65
2023/06/30 03:53:17;;;;;;;34.00;16.95;;;;;;;;;;7341817;19;19998;-63
2023/06/30 03:55:42;;;;;;;36.70;19.27;;;;;;;;;;7343002;19;20381;-64
2023/06/30 03:58:08;;;;;;;35.60;18.58;;;;;;;;;;7344032;19;20687;-64
2023/06/30 04:00:33;;;;;;;35.92;19.35;;;;;;;;;;7365984;19;20006;-64
2023/06/30 04:02:59;;;;;;;34.83;18.95;;;;;;;;;;7371588;19;20039;-65
2023/06/30 04:05:25;;;;;;;38.85;19.55;;;;;;;;;;7351440;19;20054;-65
2023/06/30 04:07:50;;;;;;;36.03;19.70;;;;;;;;;;7349336;19;20018;-65
2023/06/30 04:10:15;;;;;;;35.33;19.65;;;;;;;;;;7350236;19;20003;-65
2023/06/30 04:12:42;;;;;;;38.22;20.83;;;;;;;;;;7369358;19;20041;-65
2023/06/30 04:15:10;;;;;;;38.55;20.52;;;;;;;;;;7363815;19;20010;-66
2023/06/30 04:17:35;;;;;;;37.63;19.52;;;;;;;;;;7342295;19;20053;-66
2023/06/30 04:20:00;;;;;;;38.53;20.45;;;;;;;;;;7341530;19;20010;-66
2023/06/30 04:22:26;;;;;;;35.88;20.15;;;;;;;;;;7343185;19;20422;-65
2023/06/30 04:24:51;;;;;;;36.25;19.90;;;;;;;;;;7364525;19;20396;-64
2023/06/30 04:27:17;;;;;;;33.75;19.08;;;;;;;;;;7362396;19;20434;-64
2023/06/30 04:29:42;;;;;;;35.53;20.60;;;;;;;;;;7342513;19;20011;-65
2023/06/30 04:32:08;;;;;;;38.33;20.88;;;;;;;;;;7343201;19;20090;-64
2023/06/30 04:34:34;;;;;;;39.50;21.55;;;;;;;;;;7342070;19;20071;-64
2023/06/30 04:37:00;;;;;;;39.25;21.75;;;;;;;;;;7341627;19;20023;-64
2023/06/30 04:39:25;;;;;;;38.97;21.17;;;;;;;;;;7385821;19;20014;-64
2023/06/30 04:41:50;;;;;;;43.05;23.17;;;;;;;;;;7344592;19;20074;-64
2023/06/30 04:44:16;;;;;;;43.92;22.85;;;;;;;;;;7343626;19;20034;-64
2023/06/30 04:46:41;;;;;;;38.92;21.30;;;;;;;;;;7343774;19;20156;-64
2023/06/30 04:49:06;;;;;;;40.45;23.10;;;;;;;;;;7341857;19;20006;-63
2023/06/30 04:51:32;;;;;;;42.92;22.55;;;;;;;;;;7367645;19;20474;-63
2023/06/30 04:53:57;;;;;;;44.25;24.33;;;;;;;;;;7366597;19;20002;-63
2023/06/30 04:56:23;;;;;;;41.22;22.90;;;;;;;;;;7343936;19;20026;-63
2023/06/30 04:58:51;;;;;;;42.38;22.75;;;;;;;;;;7335325;19;20027;-64
2023/06/30 05:01:16;;;;;;;47.20;22.58;;;;;;;;;;7332228;19;20377;-63
2023/06/30 05:03:41;;;;;;;40.30;23.02;;;;;;;;;;7356812;19;20007;-65
2023/06/30 05:06:07;;;;;;;43.70;23.73;;;;;;;;;;7358873;19;20014;-64
2023/06/30 05:08:32;;;;;;;44.50;22.85;;;;;;;;;;7342007;19;20014;-64
2023/06/30 05:10:57;;;;;;;49.45;24.45;;;;;;;;;;7339663;19;20552;-65
2023/06/30 05:13:25;;;;;;;46.33;24.60;;;;;;;;;;7339742;19;20018;-65
2023/06/30 05:15:50;;;;;;;46.22;24.88;;;;;;;;;;7364720;19;20011;-65
2023/06/30 05:18:15;;;;;;;48.28;25.17;;;;;;;;;;7363390;19;20014;-64
2023/06/30 05:20:41;;;;;;;50.38;24.08;;;;;;;;;;7340184;19;20006;-65
2023/06/30 05:23:06;;;;;;;43.03;23.77;;;;;;;;;;7342486;19;20468;-65
2023/06/30 05:25:32;;;;;;;45.28;24.88;;;;;;;;;;7342389;19;20048;-65
2023/06/30 05:27:57;;;;;;;46.45;23.42;;;;;;;;;;7340621;19;20028;-65
2023/06/30 05:30:22;;;;;;;48.30;24.70;;;;;;;;;;7383904;19;20010;-65
2023/06/30 05:32:48;;;;;;;48.58;25.45;;;;;;;;;;7342352;19;20003;-63
2023/06/30 05:35:13;;;;;;;43.85;21.48;;;;;;;;;;7339958;19;20053;-64
2023/06/30 05:37:38;;;;;;;48.67;25.00;;;;;;;;;;7343455;19;20610;-64
2023/06/30 05:40:04;;;;;;;48.63;25.05;;;;;;;;;;7349084;19;20029;-64
2023/06/30 05:42:30;;;;;;;49.20;24.38;;;;;;;;;;7370215;19;20080;-64
2023/06/30 05:44:55;;;;;;;47.38;24.65;;;;;;;;;;7369170;19;20018;-65
2023/06/30 05:47:20;;;;;;;48.63;23.55;;;;;;;;;;7348184;19;20010;-65
2023/06/30 05:49:46;;;;;;;50.47;24.92;;;;;;;;;;7348480;19;20031;-64
2023/06/30 05:52:11;;;;;;;45.95;23.73;;;;;;;;;;7351189;19;20019;-64
2023/06/30 05:54:37;;;;;;;39.20;19.88;;;;;;;;;;7365785;19;20014;-64
2023/06/30 05:57:03;;;;;;;32.92;15.77;;;;;;;;;;7359650;19;22154;-65
2023/06/30 05:59:30;;;;;;;22.33;13.05;;;;;;;;;;7346629;19;20469;-63
2023/06/30 06:01:55;;;;;;;18.27;10.40;;;;;;;;;;7344778;19;20014;-64
2023/06/30 06:04:21;;;;;;;17.73;8.02;;;;;;;;;;7345943;19;20054;-64
2023/06/30 06:06:46;;;;;;;11.90;6.53;;;;;;;;;;7364697;19;20026;-74
2023/06/30 06:09:12;;;;;;;12.88;7.43;;;;;;;;;;7366825;19;19999;-75
2023/06/30 06:11:38;;;;;;;13.15;5.93;;;;;;;;;;7345551;19;20406;-69
2023/06/30 06:14:03;;;;;;;11.90;5.85;;;;;;;;;;7345829;19;20030;-71
2023/06/30 06:16:29;;;;;;;12.20;5.25;;;;;;;;;;7348118;19;20015;-70
2023/06/30 06:18:54;;;;;;;8.00;4.38;;;;;;;;;;7370853;19;20014;-72
2023/06/30 06:21:20;;;;;;;8.48;4.53;;;;;;;;;;7367673;19;20484;-67
2023/06/30 06:23:45;;;;;;;7.13;4.07;;;;;;;;;;7346505;19;20007;-71
2023/06/30 06:26:11;;;;;;;8.50;4.10;;;;;;;;;;7346578;19;20018;-69
2023/06/30 06:28:36;;;;;;;6.60;3.60;;;;;;;;;;7345307;19;20020;-68
2023/06/30 06:31:01;;;;;;;7.63;3.13;;;;;;;;;;7345597;19;20048;-66
2023/06/30 06:33:27;;;;;;;9.48;3.28;;;;;;;;;;7383020;19;20045;-67
2023/06/30 06:35:52;;;;;;;5.82;3.03;;;;;;;;;;7356739;19;20010;-66
2023/06/30 06:38:18;;;;;;;5.47;3.00;;;;;;;;;;7346274;19;20009;-68
2023/06/30 06:40:45;;;;;;;5.68;3.10;;;;;;;;;;7339022;19;20027;-68
2023/06/30 06:43:10;;;;;;;6.70;2.95;;;;;;;;;;7346503;19;20093;-69
2023/06/30 06:45:35;;;;;;;5.70;3.20;;;;;;;;;;7366982;19;20024;-69
2023/06/30 06:48:20;;;;;;;6.13;2.40;;;;;;;;;;7368365;19;20011;-70
2023/06/30 06:50:50;;;;;;;6.70;2.70;;;;;;;;;;7339893;19;20007;-66
2023/06/30 06:53:22;;;;;;;6.38;2.40;;;;;;;;;;7345115;19;20082;-66
2023/06/30 06:55:52;;;;;;;5.25;2.65;;;;;;;;;;7346287;19;20576;-66
2023/06/30 06:58:18;;;;;;;;;;;;;;;;;;7345854;19;20026;-66
2023/06/30 07:00:46;;;;;;;5.40;2.60;;;;;;;;;;7366250;19;19966;-66
2023/06/30 07:03:12;;;;;;;4.25;2.60;;;;;;;;;;7365727;19;20011;-71
2023/06/30 07:05:39;;;;;;;4.45;2.60;;;;;;;;;;7346859;19;20018;-72
2023/06/30 07:08:07;;;;;;;5.75;2.40;;;;;;;;;;7348124;19;20082;-71
2023/06/30 07:10:33;;;;;;;4.50;2.63;;;;;;;;;;7345670;19;20011;-68
2023/06/30 07:12:59;;;;;;;6.57;2.85;;;;;;;;;;7342324;19;20043;-68
2023/06/30 07:15:25;;;;;;;4.90;2.70;;;;;;;;;;7384714;19;20011;-68
2023/06/30 07:17:50;;;;;;;5.57;3.20;;;;;;;;;;7345557;19;20010;-68
2023/06/30 07:20:15;;;;;;;6.07;2.75;;;;;;;;;;7343902;19;20024;-61
2023/06/30 07:22:41;;;;;;;4.38;2.60;;;;;;;;;;7345801;19;20111;-62
2023/06/30 07:25:07;;;;;;;6.43;3.08;;;;;;;;;;7347512;19;20006;-61
2023/06/30 07:27:32;;;;;;;5.88;3.50;;;;;;;;;;7367700;19;20007;-62
2023/06/30 07:29:58;;;;;;;5.35;3.30;;;;;;;;;;7367075;19;20570;-63
2023/06/30 07:32:23;;;;;;;7.93;3.40;;;;;;;;;;7345523;19;20467;-62
2023/06/30 07:34:48;;;;;;;4.40;2.72;;;;;;;;;;7343345;19;20015;-63
2023/06/30 07:37:14;;;;;;;4.47;2.72;;;;;;;;;;7343379;19;20019;-63
2023/06/30 07:39:39;;;;;;;4.95;2.70;;;;;;;;;;7366697;19;20031;-63
2023/06/30 07:42:05;;;;;;;3.72;2.20;;;;;;;;;;7365468;19;20007;-62
2023/06/30 07:44:31;;;;;;;9.05;3.20;;;;;;;;;;7344131;19;20049;-61
2023/06/30 07:46:56;;;;;;;4.72;2.50;;;;;;;;;;7343796;19;20341;-62
2023/06/30 07:49:21;;;;;;;4.32;2.35;;;;;;;;;;7344548;19;20038;-62
2023/06/30 07:51:47;;;;;;;3.55;2.30;;;;;;;;;;7367196;19;19995;-62
2023/06/30 07:54:13;;;;;;;4.20;2.63;;;;;;;;;;7367386;19;20082;-62
2023/06/30 07:56:39;;;;;;;3.92;2.47;;;;;;;;;;7344292;19;20007;-63
2023/06/30 07:59:05;;;;;;;6.55;2.20;;;;;;;;;;7344609;19;20427;-63
2023/06/30 08:01:30;;;;;;;3.90;2.17;;;;;;;;;;7342554;19;20031;-63
2023/06/30 08:03:56;;;;;;;4.45;2.45;;;;;;;;;;7367304;19;20006;-61
2023/06/30 08:06:21;;;;;;;5.57;2.10;;;;;;;;;;7388661;19;20002;-62
2023/06/30 08:08:46;;;;;;;7.90;2.40;;;;;;;;;;7355044;19;20006;-62
2023/06/30 08:11:12;;;;;;;5.03;2.22;;;;;;;;;;7345693;19;20002;-64
2023/06/30 08:13:37;;;;;;;3.28;2.20;;;;;;;;;;7344277;19;20028;-63
2023/06/30 08:16:03;;;;;;;4.22;2.20;;;;;;;;;;7344414;19;20004;-63
2023/06/30 08:18:28;;;;;;;5.03;2.30;;;;;;;;;;7364668;19;20344;-63
2023/06/30 08:20:55;;;;;;;2.63;2.05;;;;;;;;;;7365362;19;20035;-62
2023/06/30 08:23:21;;;;;;;3.55;2.00;;;;;;;;;;7343806;19;20465;-63
2023/06/30 08:25:46;;;;;;;2.30;1.88;;;;;;;;;;7343157;19;20006;-63
2023/06/30 08:28:12;;;;;;;5.72;2.22;;;;;;;;;;7342278;19;20018;-63
2023/06/30 08:30:37;;;;;;;3.45;2.05;;;;;;;;;;7365750;19;20365;-63
2023/06/30 08:33:02;;;;;;;3.05;1.98;;;;;;;;;;7364610;19;20523;-63
2023/06/30 08:35:28;;;;;;;6.43;2.00;;;;;;;;;;7343594;19;20011;-63
2023/06/30 08:37:53;;;;;;;3.78;1.88;;;;;;;;;;7340800;19;20377;-63
2023/06/30 08:40:25;;;;;;;6.10;2.08;;;;;;;;;;7343671;19;20083;-63
2023/06/30 08:42:52;;;;;;;6.10;2.10;;;;;;;;;;7364558;19;20373;-63
2023/06/30 08:45:18;;;;;;;3.40;2.00;;;;;;;;;;7362096;19;20014;-62
2023/06/30 08:47:44;;;;;;;3.17;1.70;;;;;;;;;;7339258;19;20010;-62
2023/06/30 08:50:09;;;;;;;6.45;2.05;;;;;;;;;;7342492;19;20774;-62
2023/06/30 08:52:35;;;;;;;3.10;2.20;;;;;;;;;;7344098;19;20389;-64
2023/06/30 08:55:02;;;;;;;3.88;1.80;;;;;;;;;;7342157;19;20022;-63
2023/06/30 08:57:29;;;;;;;2.30;1.70;;;;;;;;;;7367039;19;20379;-62
2023/06/30 08:59:54;;;;;;;1.80;1.52;;;;;;;;;;7362679;19;20071;-62
2023/06/30 09:02:22;;;;;;;3.30;1.70;;;;;;;;;;7339554;19;20007;-64
2023/06/30 09:04:48;;;;;;;1.98;1.50;;;;;;;;;;7343169;19;20053;-64
2023/06/30 09:07:23;;;;;;;3.88;1.70;;;;;;;;;;7342246;19;20477;-64
2023/06/30 09:09:53;;;;;;;3.53;1.63;;;;;;;;;;7363859;19;20080;-64
2023/06/30 09:12:19;;;;;;;4.68;1.55;;;;;;;;;;7362977;19;20094;-64
2023/06/30 09:14:45;;;;;;;2.28;1.45;;;;;;;;;;7343964;19;20093;-63
2023/06/30 09:17:11;;;;;;;8.07;1.88;;;;;;;;;;7348979;19;20627;-63
2023/06/30 09:19:38;;;;;;;3.50;1.50;;;;;;;;;;7349281;19;20018;-63
2023/06/30 09:22:04;;;;;;;1.73;1.50;;;;;;;;;;7349967;19;20119;-61
2023/06/30 09:24:30;;;;;;;1.80;1.50;;;;;;;;;;7372123;19;19999;-62
2023/06/30 09:26:55;;;;;;;3.88;1.55;;;;;;;;;;7367562;19;20107;-62
2023/06/30 09:29:23;;;;;;;5.32;1.88;;;;;;;;;;7348228;19;20615;-63
2023/06/30 09:31:51;;;;;;;4.03;1.70;;;;;;;;;;7349973;19;20433;-62
2023/06/30 09:34:19;;;;;;;2.47;1.50;;;;;;;;;;7347270;19;20034;-62
2023/06/30 09:36:48;;;;;;;3.65;1.58;;;;;;;;;;7369112;19;20034;-62
2023/06/30 09:39:13;;;;;;;3.28;1.60;;;;;;;;;;7368950;19;20006;-61
2023/06/30 09:41:44;;;;;;;4.45;1.60;;;;;;;;;;7345643;19;20007;-60
2023/06/30 09:44:11;;;;;;;7.22;1.50;;;;;;;;;;7346665;19;20059;-62
2023/06/30 09:46:36;;;;;;;3.00;1.67;;;;;;;;;;7348227;19;20027;-63
2023/06/30 09:49:04;;;;;;;3.53;1.55;;;;;;;;;;7347323;19;20006;-63
2023/06/30 09:51:33;;;;;;;4.45;1.52;;;;;;;;;;7371196;19;20007;-63
2023/06/30 09:53:58;;;;;;;1.95;1.50;;;;;;;;;;7369485;19;20002;-67
2023/06/30 09:56:23;;;;;;;6.22;1.58;;;;;;;;;;7347919;19;20046;-62
2023/06/30 09:58:58;;;;;;;3.25;1.70;;;;;;;;;;7345573;19;20028;-63
2023/06/30 10:01:24;;;;;;;9.07;1.80;;;;;;;;;;7347857;19;20026;-63
2023/06/30 10:03:51;;;;;;;4.57;1.70;;;;;;;;;;7368968;19;20014;-63
2023/06/30 10:06:17;;;;;;;7.68;2.03;;;;;;;;;;7370970;19;20484;-62
2023/06/30 10:08:48;;;;;;;4.88;2.00;;;;;;;;;;7346845;19;20393;-63
2023/06/30 10:11:14;;;;;;;;;;;;;;;;;;7348197;19;20018;-62
2023/06/30 10:13:41;;;;;;;2.95;1.80;;;;;;;;;;7347456;19;19935;-62
2023/06/30 10:16:07;;;;;;;3.67;1.75;;;;;;;;;;7349557;19;20014;-64
2023/06/30 10:18:37;;;;;;;4.07;1.80;;;;;;;;;;7368507;19;20006;-63
2023/06/30 10:21:03;;;;;;;5.05;1.88;;;;;;;;;;7371722;19;20010;-63
2023/06/30 10:23:30;;;;;;;2.53;1.83;;;;;;;;;;7349406;19;20084;-61
2023/06/30 10:25:56;;;;;;;8.30;2.17;;;;;;;;;;7344850;19;20006;-60
2023/06/30 10:28:21;;;;;;;5.50;2.00;;;;;;;;;;7346708;19;20010;-62
2023/06/30 10:30:51;;;;;;;4.53;1.95;;;;;;;;;;7368935;19;19999;-62
2023/06/30 10:33:16;;;;;;;4.43;1.90;;;;;;;;;;7368692;19;20006;-64
2023/06/30 10:35:42;;;;;;;4.47;1.60;;;;;;;;;;7345428;19;20011;-63
2023/06/30 10:38:10;;;;;;;3.35;1.80;;;;;;;;;;7344733;19;20026;-63
2023/06/30 10:40:35;;;;;;;8.50;2.00;;;;;;;;;;7345907;19;20049;-63
2023/06/30 10:43:00;;;;;;;5.10;2.03;;;;;;;;;;7346298;19;20007;-61
2023/06/30 10:45:32;;;;;;;4.65;1.92;;;;;;;;;;7391752;19;19998;-62
2023/06/30 10:48:08;;;;;;;4.60;2.03;;;;;;;;;;7345425;19;20010;-62
2023/06/30 10:50:45;;;;;;;7.93;1.90;;;;;;;;;;7343128;19;20460;-64
2023/06/30 10:53:18;;;;;;;5.90;2.10;;;;;;;;;;7345202;19;20019;-62
2023/06/30 10:55:44;;;;;;;3.25;2.03;;;;;;;;;;7345808;19;20081;-63
2023/06/30 10:58:09;;;;;;;3.85;1.90;;;;;;;;;;7345129;19;20009;-63
2023/06/30 11:00:35;;;;;;;5.53;2.05;;;;;;;;;;7366992;19;20014;-64
2023/06/30 11:03:03;;;;;;;3.40;2.10;;;;;;;;;;7366454;19;20401;-63
2023/06/30 11:05:33;;;;;;;4.78;2.22;;;;;;;;;;7344374;19;20010;-64
2023/06/30 11:08:01;;;;;;;6.10;2.00;;;;;;;;;;7346135;19;20026;-64
2023/06/30 11:10:27;;;;;;;9.07;2.25;;;;;;;;;;7344179;19;20031;-63
2023/06/30 11:12:55;;;;;;;10.05;2.30;;;;;;;;;;7366976;19;20103;-63
2023/06/30 11:15:26;;;;;;;3.15;1.80;;;;;;;;;;7367317;19;20017;-63
2023/06/30 11:17:51;;;;;;;;;;;;;;;;;;7342644;19;20018;-63
2023/06/30 11:20:16;;;;;;;7.93;2.53;;;;;;;;;;7344324;19;19922;-63
2023/06/30 11:22:55;;;;;;;7.22;1.80;;;;;;;;;;7345094;19;20035;-66
2023/06/30 11:25:20;;;;;;;3.65;1.70;;;;;;;;;;7343872;19;20023;-66
2023/06/30 11:27:46;;;;;;;5.45;1.80;;;;;;;;;;7366047;19;20011;-65
2023/06/30 11:30:21;;;;;;;4.15;1.92;;;;;;;;;;7366753;19;20031;-66
2023/06/30 11:32:47;;;;;;;3.33;1.70;;;;;;;;;;7341081;19;20011;-65
2023/06/30 11:35:16;;;;;;;4.07;1.73;;;;;;;;;;7339630;19;20314;-65
2023/06/30 11:37:47;;;;;;;3.15;1.80;;;;;;;;;;7343368;19;20588;-65
2023/06/30 11:40:12;;;;;;;;;;;;;;;;;;7345668;19;20030;-65
2023/06/30 11:42:40;;;;;;;5.03;1.93;;;;;;;;;;7365310;19;19923;-65
2023/06/30 11:45:06;;;;;;;5.50;1.85;;;;;;;;;;7367061;19;20006;-65
2023/06/30 11:47:33;;;;;;;4.70;1.70;;;;;;;;;;7342477;19;20014;-66
2023/06/30 11:50:04;;;;;;;12.98;2.00;;;;;;;;;;7344431;19;20007;-65
2023/06/30 11:52:32;;;;;;;6.07;1.90;;;;;;;;;;7346174;19;20007;-66
2023/06/30 11:54:58;;;;;;;4.85;1.85;;;;;;;;;;7345157;19;20037;-65
2023/06/30 11:57:23;;;;;;;2.83;1.83;;;;;;;;;;7388164;19;20465;-65
2023/06/30 11:59:49;;;;;;;3.30;1.70;;;;;;;;;;7342989;19;20094;-65
2023/06/30 12:02:14;;;;;;;4.68;2.00;;;;;;;;;;7340624;19;20591;-66
2023/06/30 12:04:46;;;;;;;4.80;2.05;;;;;;;;;;7341788;19;20021;-65
2023/06/30 12:07:14;;;;;;;4.03;1.95;;;;;;;;;;7342932;19;20003;-65
2023/06/30 12:09:40;;;;;;;6.88;2.05;;;;;;;;;;7365494;19;20009;-63
2023/06/30 12:12:07;;;;;;;6.05;2.10;;;;;;;;;;7366869;19;20010;-59
2023/06/30 12:14:40;;;;;;;3.90;2.38;;;;;;;;;;7344479;19;20006;-56
2023/06/30 12:17:05;;;;;;;8.18;3.22;;;;;;;;;;7342692;19;20025;-59
2023/06/30 12:19:30;;;;;;;4.72;2.28;;;;;;;;;;7344405;19;20010;-59
2023/06/30 12:21:59;;;;;;;5.78;2.30;;;;;;;;;;7366605;19;20006;-72
2023/06/30 12:24:30;;;;;;;5.13;2.35;;;;;;;;;;7392762;19;20010;-72
2023/06/30 12:26:55;;;;;;;4.63;2.47;;;;;;;;;;7350841;19;20025;-73
2023/06/30 12:29:22;;;;;;;4.75;2.40;;;;;;;;;;7343157;19;20010;-72
2023/06/30 12:31:47;;;;;;;6.15;2.67;;;;;;;;;;7341080;19;20508;-72
2023/06/30 12:34:33;;;;;;;7.20;2.42;;;;;;;;;;7342416;19;20010;-70
2023/06/30 12:36:59;;;;;;;6.65;3.33;;;;;;;;;;7340847;19;20520;-71
2023/06/30 12:39:25;;;;;;;9.68;2.90;;;;;;;;;;7388734;19;20022;-71
2023/06/30 12:41:50;;;;;;;5.38;3.20;;;;;;;;;;7343180;19;20007;-70
2023/06/30 12:44:15;;;;;;;5.30;2.70;;;;;;;;;;7338895;19;20432;-70
2023/06/30 12:46:41;;;;;;;6.85;2.80;;;;;;;;;;7341621;19;20026;-69
2023/06/30 12:49:06;;;;;;;7.97;2.63;;;;;;;;;;7341055;19;20025;-69
2023/06/30 12:51:32;;;;;;;5.07;2.63;;;;;;;;;;7365471;19;20021;-70
2023/06/30 12:53:58;;;;;;;6.57;2.83;;;;;;;;;;7364649;19;20086;-71
2023/06/30 12:56:26;;;;;;;5.07;2.65;;;;;;;;;;7341698;19;20011;-71
2023/06/30 12:58:52;;;;;;;5.97;2.60;;;;;;;;;;7342066;19;20037;-70
2023/06/30 13:01:17;;;;;;;6.50;2.58;;;;;;;;;;7346031;19;20026;-70
2023/06/30 13:03:43;;;;;;;6.80;3.00;;;;;;;;;;7369700;19;20844;-70
2023/06/30 13:06:09;;;;;;;4.47;2.25;;;;;;;;;;7370211;19;20017;-70
2023/06/30 13:08:35;;;;;;;6.45;2.50;;;;;;;;;;7371570;19;20010;-71
2023/06/30 13:11:01;;;;;;;5.60;2.70;;;;;;;;;;7348902;19;20015;-70
2023/06/30 13:13:26;;;;;;;4.72;2.63;;;;;;;;;;7347719;19;20006;-70
2023/06/30 13:15:52;;;;;;;7.38;2.75;;;;;;;;;;7365575;19;20034;-70
2023/06/30 13:18:21;;;;;;;4.85;2.60;;;;;;;;;;7364606;19;20018;-71
2023/06/30 13:20:46;;;;;;;4.10;2.40;;;;;;;;;;7338741;19;20019;-71
2023/06/30 13:23:11;;;;;;;6.88;2.92;;;;;;;;;;7338030;19;20399;-71
2023/06/30 13:25:37;;;;;;;6.82;3.10;;;;;;;;;;7338198;19;20015;-66
2023/06/30 13:28:02;;;;;;;4.90;2.55;;;;;;;;;;7345309;19;20023;-67
2023/06/30 13:30:28;;;;;;;7.45;2.55;;;;;;;;;;7360914;19;20006;-67
2023/06/30 13:32:53;;;;;;;7.32;2.70;;;;;;;;;;7360456;19;20009;-65
2023/06/30 13:35:19;;;;;;;5.70;2.67;;;;;;;;;;7339443;19;20047;-65
2023/06/30 13:37:46;;;;;;;5.38;2.63;;;;;;;;;;7337696;19;20010;-65
2023/06/30 13:40:11;;;;;;;4.50;2.38;;;;;;;;;;7336971;19;20022;-66
2023/06/30 13:42:37;;;;;;;7.40;2.50;;;;;;;;;;7361045;19;20015;-66
2023/06/30 13:45:02;;;;;;;4.93;2.40;;;;;;;;;;7362221;19;20007;-66
2023/06/30 13:47:28;;;;;;;6.80;2.50;;;;;;;;;;7340547;19;20092;-66
2023/06/30 13:49:54;;;;;;;3.97;2.35;;;;;;;;;;7338111;19;20018;-66
2023/06/30 13:52:19;;;;;;;7.13;2.40;;;;;;;;;;7342707;19;20014;-66
2023/06/30 13:54:44;;;;;;;5.18;2.63;;;;;;;;;;7361137;19;20006;-66
2023/06/30 13:57:11;;;;;;;6.07;2.75;;;;;;;;;;7361718;19;20073;-67
2023/06/30 13:59:36;;;;;;;4.03;2.40;;;;;;;;;;7341635;19;20027;-66
2023/06/30 14:02:01;;;;;;;4.85;2.38;;;;;;;;;;7347506;19;20983;-67
2023/06/30 14:04:27;;;;;;;4.70;2.70;;;;;;;;;;7348556;19;20696;-66
2023/06/30 14:06:53;;;;;;;5.32;2.75;;;;;;;;;;7368760;19;20007;-65
2023/06/30 14:09:18;;;;;;;2.97;2.15;;;;;;;;;;7371183;19;20687;-66
2023/06/30 14:11:43;;;;;;;4.70;2.60;;;;;;;;;;7346385;19;20045;-66
2023/06/30 14:14:09;;;;;;;8.02;2.40;;;;;;;;;;7348699;19;20629;-65
2023/06/30 14:16:34;;;;;;;3.67;2.50;;;;;;;;;;7350298;19;20010;-66
2023/06/30 14:19:05;;;;;;;5.72;2.78;;;;;;;;;;7347503;19;20004;-65
2023/06/30 14:21:31;;;;;;;5.15;2.67;;;;;;;;;;7370188;19;20007;-64
2023/06/30 14:23:56;;;;;;;5.82;2.90;;;;;;;;;;7368084;19;20093;-66
2023/06/30 14:26:25;;;;;;;5.55;2.80;;;;;;;;;;7345612;19;20015;-66
2023/06/30 14:28:51;;;;;;;6.30;3.10;;;;;;;;;;7347990;19;20034;-65
2023/06/30 14:31:17;;;;;;;16.15;3.40;;;;;;;;;;7346370;19;20067;-66